メインページ
METAR-TAF:

METAR-TAF

空港 :

レイキャヴィーク, アイスランド

レイキャヴィーク空港

緯度: 64-08N, 経度: 021-54W, 海抜: 54m

現時点の気象観測

当レポートは1時間0分前の23:00(UTC)に作成
の風 13kt
気温 3°C
湿度 75%
気圧 1013 hPa
視程10km以上
高度2500ftの雲はほとんどない
高度3100ftの雲は散在している

METAR: BIRK 242300Z 18013KT 9999 FEW025 SCT031 03/M01 Q1013 R19/590242

時間: 00:00 (00:00 UTC)

予報

当レポートは1時間40分前の22:20(UTC)に作成
予報は25日の 00時(UTC)から 25日の 24時(UTC)まで有効
の風 15kt
視程10km以上
高度2000ftの雲は散在している
高度3500ftの千切れ雲あり
25日の 04時(UTC)から 25日の 07時(UTC)まで徐々に
の風 12kt
25日の 09時(UTC)から 25日の 12時(UTC)まで徐々に
の風 25kt、最大35ktの突風を伴う
視程: 9000m
高度1400ftの千切れ雲あり
高度2500ftの曇り
25日の 13時(UTC)から 25日の 15時(UTC)まで徐々に
南東の風 35kt、最大48ktの突風を伴う
霧雨
25日の 22時(UTC)から 25日の 24時(UTC)まで徐々に
南/南東の風 25kt、最大35ktの突風を伴う

TAF: BIRK 242220Z 2500/2524 18015KT 9999 SCT020 BKN035 TX07/2522Z TN02/2506Z BECMG 2504/2507 10012KT BECMG 2509/2512 08025G35KT 9000 RA BKN014 OVC025 BECMG 2513/2515 14035G48KT DZ BECMG 2522/2524 16025G35KT

4,000以上の空港の気象観測と天気予報(METAR報とTAF報)

利用可能な観測所は地図上に黄色い丸と赤い丸で示す。

丸の上にカーソルを重ねると観測所名を参照できる。

次にクリックすると気象観測と天気予報を参照できる。

マップの切り替え:黒色「×」印の緑ボタンをクリックして拡大、「-」印の緑ボタンをクリックして縮小、緑色の三角印をクリックして隣りの地図に切り替え


METAR-TAF: